createdAt,value
2019-04-28T00:01:34.525Z,100221.38
2019-04-28T00:03:10.836Z,100223.72
2019-04-28T00:04:45.761Z,100216.83
2019-04-28T00:06:21.204Z,100218.75
2019-04-28T00:07:56.795Z,100220.11
2019-04-28T00:09:31.825Z,100221.11
2019-04-28T00:11:06.712Z,100217.93
2019-04-28T00:12:41.704Z,100215.73
2019-04-28T00:14:16.662Z,100224.44
2019-04-28T00:15:51.717Z,100221.41
2019-04-28T00:17:26.574Z,100225.08
2019-04-28T00:19:01.773Z,100226.61
2019-04-28T00:20:54.642Z,100227.44
2019-04-28T00:22:36.281Z,100225.62
2019-04-28T00:24:28.550Z,100230.25
2019-04-28T00:26:23.249Z,100230.59
2019-04-28T00:27:58.081Z,100236.34
2019-04-28T00:29:40.352Z,100225.17
2019-04-28T00:31:11.310Z,100229.86
2019-04-28T00:32:46.619Z,100229.47
2019-04-28T00:34:21.705Z,100224.98
2019-04-28T00:35:56.988Z,100214.10
2019-04-28T00:37:37.088Z,100219.08
2019-04-28T00:39:12.381Z,100216.45
2019-04-28T00:40:47.194Z,100205.95
2019-04-28T00:42:22.766Z,100214.75
2019-04-28T00:43:58.373Z,100213.56
2019-04-28T00:45:33.528Z,100212.17
2019-04-28T00:47:08.835Z,100212.59
2019-04-28T00:48:43.963Z,100213.52
2019-04-28T00:50:19.310Z,100216.22
2019-04-28T00:51:54.455Z,100206.20
2019-04-28T00:53:31.072Z,100212.72
2019-04-28T00:55:06.893Z,100204.45
2019-04-28T00:56:42.169Z,100212.58
2019-04-28T00:58:17.357Z,100219.73
2019-04-28T00:59:58.259Z,100214.95
2019-04-28T01:01:36.374Z,100214.14
2019-04-28T01:03:11.732Z,100220.94
2019-04-28T01:04:46.722Z,100222.84
2019-04-28T01:06:22.179Z,100226.80
2019-04-28T01:07:57.528Z,100222.18
2019-04-28T01:09:32.475Z,100225.84
2019-04-28T01:11:07.774Z,100225.41
2019-04-28T01:12:42.700Z,100232.44
2019-04-28T01:14:17.869Z,100224.65
2019-04-28T01:16:11.801Z,100228.01
2019-04-28T01:17:53.152Z,100225.98
2019-04-28T01:19:31.023Z,100228.32
2019-04-28T01:21:06.269Z,100230.66
2019-04-28T01:22:41.074Z,100227.34
2019-04-28T01:24:15.890Z,100234.89
2019-04-28T01:25:50.705Z,100235.52
2019-04-28T01:27:50.803Z,100231.70
2019-04-28T01:29:25.720Z,100244.73
2019-04-28T01:31:25.463Z,100240.63
2019-04-28T01:33:05.233Z,100243.05
2019-04-28T01:34:40.975Z,100245.33
2019-04-28T01:36:15.862Z,100246.53
2019-04-28T01:37:50.665Z,100250.30
2019-04-28T01:39:25.460Z,100256.66
2019-04-28T01:41:01.569Z,100262.55
2019-04-28T01:42:36.524Z,100259.55
2019-04-28T01:44:11.397Z,100263.00
2019-04-28T01:45:46.278Z,100264.27
2019-04-28T01:47:21.114Z,100268.19
2019-04-28T01:48:56.250Z,100263.74
2019-04-28T01:50:31.685Z,100264.52
2019-04-28T01:52:06.647Z,100260.81
2019-04-28T01:53:41.865Z,100267.75
2019-04-28T01:55:16.690Z,100270.30
2019-04-28T01:56:51.503Z,100270.84
2019-04-28T01:58:26.307Z,100273.41
2019-04-28T02:00:01.496Z,100271.70
2019-04-28T02:01:36.452Z,100273.30
2019-04-28T02:03:11.553Z,100265.66
2019-04-28T02:04:46.740Z,100268.08
2019-04-28T02:06:21.970Z,100269.11
2019-04-28T02:07:56.795Z,100265.52
2019-04-28T02:09:31.618Z,100271.59
2019-04-28T02:11:06.658Z,100263.83
2019-04-28T02:12:41.582Z,100265.47
2019-04-28T02:14:16.746Z,100258.56
2019-04-28T02:15:51.665Z,100251.33
2019-04-28T02:17:26.862Z,100257.87
2019-04-28T02:19:01.711Z,100257.17
2019-04-28T02:20:39.365Z,100264.27
2019-04-28T02:22:30.161Z,100259.42
2019-04-28T02:24:24.214Z,100257.89
2019-04-28T02:25:59.739Z,100258.23
2019-04-28T02:27:34.720Z,100257.48
2019-04-28T02:29:10.225Z,100258.06
2019-04-28T02:30:49.196Z,100255.88
2019-04-28T02:32:24.361Z,100256.25
2019-04-28T02:34:00.745Z,100261.41
2019-04-28T02:35:35.862Z,100262.77
2019-04-28T02:37:11.412Z,100257.35
2019-04-28T02:38:46.302Z,100269.80
2019-04-28T02:40:21.024Z,100270.08
2019-04-28T02:41:55.519Z,100269.80
2019-04-28T02:43:30.842Z,100277.00
2019-04-28T02:45:06.697Z,100274.84
2019-04-28T02:46:41.814Z,100278.62
2019-04-28T02:48:21.536Z,100274.94
2019-04-28T02:50:11.197Z,100279.97
2019-04-28T02:51:53.812Z,100284.44
2019-04-28T02:53:34.876Z,100284.67
2019-04-28T02:55:11.329Z,100288.22
2019-04-28T02:56:46.287Z,100285.53
2019-04-28T02:58:22.424Z,100288.55
2019-04-28T03:00:00.233Z,100299.05
2019-04-28T03:01:34.329Z,100305.38
2019-04-28T03:03:11.025Z,100308.97
2019-04-28T03:04:46.110Z,100309.91
2019-04-28T03:06:21.538Z,100317.41
2019-04-28T03:07:56.120Z,100330.39
2019-04-28T03:09:30.884Z,100332.82
2019-04-28T03:11:05.498Z,100334.47
2019-04-28T03:12:41.485Z,100335.86
2019-04-28T03:14:16.207Z,100332.99
2019-04-28T03:15:51.536Z,100340.44
2019-04-28T03:17:26.697Z,100336.98
2019-04-28T03:19:01.415Z,100338.62
2019-04-28T03:20:35.953Z,100338.13
2019-04-28T03:22:11.567Z,100331.01
2019-04-28T03:23:46.427Z,100335.00
2019-04-28T03:25:43.269Z,100324.11
2019-04-28T03:27:33.862Z,100317.64
2019-04-28T03:29:13.940Z,100321.53
2019-04-28T03:31:40.648Z,100327.62
2019-04-28T03:32:55.509Z,100332.02
2019-04-28T03:34:26.105Z,100335.92
2019-04-28T03:36:06.978Z,100333.91
2019-04-28T03:37:36.706Z,100332.92
2019-04-28T03:39:11.293Z,100332.50
2019-04-28T03:40:45.828Z,100334.52
2019-04-28T03:42:21.605Z,100328.84
2019-04-28T03:43:56.356Z,100331.82
2019-04-28T03:45:36.223Z,100333.40
2019-04-28T03:47:10.968Z,100341.26
2019-04-28T03:48:45.395Z,100347.20
2019-04-28T03:50:20.336Z,100345.98
2019-04-28T03:51:54.858Z,100351.84
2019-04-28T03:53:31.190Z,100352.59
2019-04-28T03:55:05.990Z,100353.73
2019-04-28T03:56:41.296Z,100353.69
2019-04-28T03:58:16.184Z,100358.14
2019-04-28T03:59:51.456Z,100360.92
2019-04-28T04:01:26.948Z,100362.53
2019-04-28T04:03:02.003Z,100367.33
2019-04-28T04:04:36.868Z,100365.66
2019-04-28T04:06:12.330Z,100359.05
2019-04-28T04:07:47.215Z,100358.88
2019-04-28T04:09:24.277Z,100362.64
2019-04-28T04:11:04.859Z,100372.86
2019-04-28T04:12:47.311Z,100377.57
2019-04-28T04:14:31.048Z,100384.47
2019-04-28T04:16:14.932Z,100380.41
2019-04-28T04:18:05.078Z,100383.98
2019-04-28T04:19:40.796Z,100380.81
2019-04-28T04:21:15.497Z,100378.76
2019-04-28T04:22:51.272Z,100379.58
2019-04-28T04:24:25.771Z,100370.74
2019-04-28T04:26:01.803Z,100376.64
2019-04-28T04:27:36.637Z,100368.54
2019-04-28T04:29:11.653Z,100371.22
2019-04-28T04:30:46.089Z,100369.72
2019-04-28T04:32:26.306Z,100375.85
2019-04-28T04:33:56.634Z,100376.48
2019-04-28T04:35:31.709Z,100377.06
2019-04-28T04:37:06.574Z,100376.71
2019-04-28T04:38:45.869Z,100373.94
2019-04-28T04:40:17.450Z,100372.58
2019-04-28T04:41:52.171Z,100364.07
2019-04-28T04:43:26.914Z,100360.78
2019-04-28T04:45:01.640Z,100361.10
2019-04-28T04:46:36.026Z,100367.94
2019-04-28T04:48:11.639Z,100365.14
2019-04-28T04:49:46.298Z,100366.05
2019-04-28T04:51:21.569Z,100372.98
2019-04-28T04:52:56.313Z,100366.59
2019-04-28T04:54:32.828Z,100367.62
2019-04-28T04:56:07.150Z,100372.37
2019-04-28T04:57:41.846Z,100372.87
2019-04-28T04:59:16.264Z,100364.98
2019-04-28T05:01:10.480Z,100366.80
2019-04-28T05:03:00.862Z,100357.52
2019-04-28T05:04:51.672Z,100365.79
2019-04-28T05:06:35.759Z,100367.38
2019-04-28T05:08:15.261Z,100371.59
2019-04-28T05:09:46.285Z,100365.02
2019-04-28T05:11:20.699Z,100374.39
2019-04-28T05:12:55.106Z,100375.36
2019-04-28T05:14:29.971Z,100379.37
2019-04-28T05:16:04.633Z,100378.61
2019-04-28T05:17:40.220Z,100376.48
2019-04-28T05:19:14.820Z,100385.40
2019-04-28T05:20:50.419Z,100382.33
2019-04-28T05:22:26.742Z,100384.15
2019-04-28T05:24:40.273Z,100389.06
2019-04-28T05:26:15.105Z,100391.03
2019-04-28T05:27:50.021Z,100390.40
2019-04-28T05:29:26.950Z,100398.22
2019-04-28T05:31:01.499Z,100400.25
2019-04-28T05:32:44.676Z,100401.45
2019-04-28T05:34:13.006Z,100402.12
2019-04-28T05:35:49.976Z,100404.56
2019-04-28T05:37:24.447Z,100400.80
2019-04-28T05:39:00.176Z,100403.52
2019-04-28T05:40:35.060Z,100407.30
2019-04-28T05:42:11.307Z,100413.02
2019-04-28T05:43:46.356Z,100406.45
2019-04-28T05:45:21.142Z,100407.33
2019-04-28T05:46:55.987Z,100403.61
2019-04-28T05:48:51.309Z,100404.43
2019-04-28T05:50:45.629Z,100409.76
2019-04-28T05:52:40.205Z,100411.44
2019-04-28T05:54:24.655Z,100412.34
2019-04-28T05:56:05.699Z,100416.84
2019-04-28T05:57:49.771Z,100415.86
2019-04-28T05:59:42.460Z,100416.65
2019-04-28T06:01:25.117Z,100417.27
2019-04-28T06:03:00.709Z,100414.31
2019-04-28T06:04:35.588Z,100417.14
2019-04-28T06:06:10.392Z,100423.55
2019-04-28T06:07:57.331Z,100418.72
2019-04-28T06:09:35.973Z,100419.87
2019-04-28T06:11:30.653Z,100417.41
2019-04-28T06:13:05.682Z,100421.17
2019-04-28T06:14:40.596Z,100421.02
2019-04-28T06:16:15.393Z,100421.10
2019-04-28T06:17:50.168Z,100421.28
2019-04-28T06:19:25.244Z,100421.98
2019-04-28T06:21:00.376Z,100417.13
2019-04-28T06:22:35.194Z,100426.52
2019-04-28T06:24:10.437Z,100425.16
2019-04-28T06:25:45.500Z,100428.86
2019-04-28T06:27:20.585Z,100427.80
2019-04-28T06:28:55.537Z,100426.94
2019-04-28T06:30:30.633Z,100429.92
2019-04-28T06:32:05.810Z,100431.89
2019-04-28T06:33:41.007Z,100440.31
2019-04-28T06:35:15.946Z,100438.13
2019-04-28T06:36:50.735Z,100436.63
2019-04-28T06:38:25.505Z,100438.52
2019-04-28T06:40:00.277Z,100439.48
2019-04-28T06:41:35.073Z,100444.31
2019-04-28T06:43:09.868Z,100440.55
2019-04-28T06:44:44.659Z,100447.28
2019-04-28T06:46:19.449Z,100442.10
2019-04-28T06:47:54.253Z,100450.28
2019-04-28T06:49:29.227Z,100450.41
2019-04-28T06:51:04.033Z,100450.67
2019-04-28T06:52:38.951Z,100452.73
2019-04-28T06:54:14.320Z,100450.11
2019-04-28T06:55:49.254Z,100450.49
2019-04-28T06:57:24.093Z,100463.78
2019-04-28T06:58:59.538Z,100457.11
2019-04-28T07:00:34.749Z,100461.86
2019-04-28T07:02:09.906Z,100456.41
2019-04-28T07:03:44.676Z,100453.09
2019-04-28T07:05:19.522Z,100460.87
2019-04-28T07:06:54.390Z,100460.69
2019-04-28T07:08:29.429Z,100465.02
2019-04-28T07:10:05.007Z,100460.18
2019-04-28T07:11:39.813Z,100462.62
2019-04-28T07:13:15.093Z,100467.67
2019-04-28T07:14:50.126Z,100467.91
2019-04-28T07:16:24.983Z,100459.05
2019-04-28T07:18:00.092Z,100465.48
2019-04-28T07:19:34.877Z,100461.55
2019-04-28T07:21:21.621Z,100462.73
2019-04-28T07:22:55.977Z,100459.24
2019-04-28T07:24:30.344Z,100466.02
2019-04-28T07:26:05.167Z,100467.34
2019-04-28T07:27:39.617Z,100467.70
2019-04-28T07:29:14.033Z,100470.55
2019-04-28T07:30:48.605Z,100470.03
2019-04-28T07:32:23.065Z,100459.83
2019-04-28T07:33:57.891Z,100459.08
2019-04-28T07:35:32.264Z,100465.71
2019-04-28T07:37:06.705Z,100473.30
2019-04-28T07:38:41.139Z,100468.66
2019-04-28T07:40:15.585Z,100475.26
2019-04-28T07:41:50.193Z,100478.59
2019-04-28T07:43:28.899Z,100485.77
2019-04-28T07:45:03.493Z,100480.31
2019-04-28T07:46:37.937Z,100485.61
2019-04-28T07:48:12.645Z,100479.52
2019-04-28T07:49:47.314Z,100486.41
2019-04-28T07:51:23.744Z,100486.12
2019-04-28T07:53:04.130Z,100492.78
2019-04-28T07:54:57.852Z,100494.61
2019-04-28T07:56:33.256Z,100493.55
2019-04-28T07:58:11.318Z,100489.45
2019-04-28T07:59:46.003Z,100488.97
2019-04-28T08:01:20.623Z,100506.64
2019-04-28T08:03:08.630Z,100502.69
2019-04-28T08:04:43.498Z,100504.22
2019-04-28T08:06:17.935Z,100504.90
2019-04-28T08:07:52.325Z,100503.94
2019-04-28T08:09:28.285Z,100498.43
2019-04-28T08:11:02.928Z,100505.91
2019-04-28T08:12:37.302Z,100515.34
2019-04-28T08:14:11.736Z,100508.66
2019-04-28T08:15:46.494Z,100513.59
2019-04-28T08:17:20.938Z,100517.21
2019-04-28T08:18:55.347Z,100528.22
2019-04-28T08:20:29.958Z,100524.14
2019-04-28T08:22:04.385Z,100528.87
2019-04-28T08:23:47.028Z,100534.67
2019-04-28T08:25:15.804Z,100534.88
2019-04-28T08:26:50.419Z,100540.23
2019-04-28T08:28:24.848Z,100543.07
2019-04-28T08:29:59.822Z,100528.98
2019-04-28T08:31:45.921Z,100542.02
2019-04-28T08:33:36.689Z,100532.32
2019-04-28T08:35:11.250Z,100531.37
2019-04-28T08:36:45.609Z,100532.23
2019-04-28T08:38:20.306Z,100550.50
2019-04-28T08:39:54.662Z,100537.03
2019-04-28T08:41:29.130Z,100536.17
2019-04-28T08:43:03.569Z,100533.95
2019-04-28T08:44:38.603Z,100536.13
2019-04-28T08:46:13.608Z,100536.61
2019-04-28T08:47:48.425Z,100537.40
2019-04-28T08:49:23.491Z,100542.16
2019-04-28T08:50:58.297Z,100545.20
2019-04-28T08:52:33.333Z,100539.09
2019-04-28T08:54:08.488Z,100541.69
2019-04-28T08:55:43.280Z,100544.25
2019-04-28T08:57:18.093Z,100547.39
2019-04-28T08:58:52.860Z,100543.48
2019-04-28T09:00:27.744Z,100547.42
2019-04-28T09:02:02.611Z,100543.10
2019-04-28T09:03:37.643Z,100544.60
2019-04-28T09:05:12.885Z,100548.59
2019-04-28T09:06:47.389Z,100553.44
2019-04-28T09:08:22.243Z,100548.61
2019-04-28T09:09:56.618Z,100556.54
2019-04-28T09:11:31.008Z,100546.01
2019-04-28T09:13:05.481Z,100544.09
2019-04-28T09:14:39.833Z,100547.33
2019-04-28T09:16:14.252Z,100544.33
2019-04-28T09:17:48.904Z,100539.53
2019-04-28T09:19:23.663Z,100536.94
2019-04-28T09:20:58.320Z,100528.19
2019-04-28T09:22:33.029Z,100533.06
2019-04-28T09:24:07.894Z,100527.12
2019-04-28T09:25:42.399Z,100526.45
2019-04-28T09:27:17.035Z,100521.19
2019-04-28T09:28:51.738Z,100528.45
2019-04-28T09:30:26.442Z,100529.05
2019-04-28T09:32:01.053Z,100548.84
2019-04-28T09:33:35.401Z,100539.27
2019-04-28T09:35:10.178Z,100532.73
2019-04-28T09:36:44.800Z,100536.95
2019-04-28T09:38:19.161Z,100525.88
2019-04-28T09:39:58.965Z,100523.34
2019-04-28T09:41:34.229Z,100527.42
2019-04-28T09:43:16.559Z,100523.36
2019-04-28T09:44:51.165Z,100521.31
2019-04-28T09:46:31.332Z,100526.20
2019-04-28T09:48:05.865Z,100528.78
2019-04-28T09:49:40.940Z,100529.34
2019-04-28T09:51:15.722Z,100523.80
2019-04-28T09:52:50.544Z,100512.75
2019-04-28T09:54:26.042Z,100518.13
2019-04-28T09:56:01.119Z,100508.96
2019-04-28T09:57:35.636Z,100522.12
2019-04-28T09:59:10.627Z,100505.70
2019-04-28T10:00:45.812Z,100503.39
2019-04-28T10:02:20.989Z,100515.33
2019-04-28T10:03:56.275Z,100528.82
2019-04-28T10:05:31.044Z,100532.37
2019-04-28T10:07:05.684Z,100540.50
2019-04-28T10:08:40.424Z,100539.09
2019-04-28T10:10:15.604Z,100540.13
2019-04-28T10:11:49.981Z,100549.09
2019-04-28T10:13:24.365Z,100539.34
2019-04-28T10:14:58.714Z,100540.35
2019-04-28T10:16:33.594Z,100541.00
2019-04-28T10:18:08.022Z,100541.19
2019-04-28T10:19:42.629Z,100552.23
2019-04-28T10:21:17.039Z,100550.47
2019-04-28T10:22:51.881Z,100536.00
2019-04-28T10:24:26.667Z,100540.28
2019-04-28T10:26:01.449Z,100544.26
2019-04-28T10:27:36.316Z,100542.63
2019-04-28T10:29:11.921Z,100541.05
2019-04-28T10:30:46.791Z,100540.62
2019-04-28T10:32:21.818Z,100542.27
2019-04-28T10:33:59.888Z,100541.03
2019-04-28T10:35:34.719Z,100539.16
2019-04-28T10:37:09.522Z,100541.19
2019-04-28T10:38:46.598Z,100537.64
2019-04-28T10:40:47.374Z,100533.16
2019-04-28T10:42:21.829Z,100530.42
2019-04-28T10:43:56.198Z,100517.30
2019-04-28T10:45:32.701Z,100512.02
2019-04-28T10:47:07.154Z,100522.86
2019-04-28T10:48:41.910Z,100521.77
2019-04-28T10:50:17.136Z,100509.53
2019-04-28T10:51:59.127Z,100516.27
2019-04-28T10:53:34.777Z,100526.64
2019-04-28T10:55:09.521Z,100524.22
2019-04-28T10:57:00.467Z,100537.58
2019-04-28T10:58:40.178Z,100537.16
2019-04-28T11:00:17.076Z,100535.78
2019-04-28T11:01:51.468Z,100532.95
2019-04-28T11:03:25.838Z,100536.59
2019-04-28T11:05:28.937Z,100534.70
2019-04-28T11:07:04.139Z,100546.72
2019-04-28T11:08:45.101Z,100548.01
2019-04-28T11:10:20.895Z,100546.27
2019-04-28T11:11:55.309Z,100548.63
2019-04-28T11:13:30.175Z,100546.90
2019-04-28T11:15:06.903Z,100548.78
2019-04-28T11:16:41.264Z,100551.50
2019-04-28T11:18:16.466Z,100548.19
2019-04-28T11:19:51.421Z,100551.72
2019-04-28T11:21:26.110Z,100550.38
2019-04-28T11:23:00.684Z,100552.15
2019-04-28T11:24:35.366Z,100550.02
2019-04-28T11:26:09.781Z,100548.19
2019-04-28T11:27:44.596Z,100546.75
2019-04-28T11:29:19.215Z,100552.63
2019-04-28T11:30:53.583Z,100553.16
2019-04-28T11:32:28.133Z,100542.64
2019-04-28T11:34:14.653Z,100548.56
2019-04-28T11:35:49.142Z,100542.95
2019-04-28T11:37:24.107Z,100549.49
2019-04-28T11:38:58.541Z,100541.92
2019-04-28T11:40:32.989Z,100537.67
2019-04-28T11:42:07.887Z,100536.31
2019-04-28T11:43:45.750Z,100541.36
2019-04-28T11:45:20.193Z,100544.61
2019-04-28T11:46:54.616Z,100548.97
2019-04-28T11:48:29.319Z,100543.97
2019-04-28T11:50:03.838Z,100551.53
2019-04-28T11:51:38.251Z,100556.74
2019-04-28T11:53:12.784Z,100558.58
2019-04-28T11:54:47.182Z,100551.55
2019-04-28T11:56:21.590Z,100549.03
2019-04-28T11:57:56.394Z,100557.39
2019-04-28T11:59:30.862Z,100552.47
2019-04-28T12:01:07.195Z,100555.98
2019-04-28T12:02:41.957Z,100555.79
2019-04-28T12:04:18.805Z,100559.22
2019-04-28T12:05:53.666Z,100561.56
2019-04-28T12:07:28.589Z,100565.43
2019-04-28T12:09:19.460Z,100565.59
2019-04-28T12:11:03.346Z,100566.23
2019-04-28T12:12:55.844Z,100561.77
2019-04-28T12:14:44.124Z,100559.98
2019-04-28T12:16:37.272Z,100566.55
2019-04-28T12:18:26.447Z,100562.73
2019-04-28T12:20:09.213Z,100566.09
2019-04-28T12:21:44.494Z,100565.09
2019-04-28T12:23:19.400Z,100565.25
2019-04-28T12:24:54.283Z,100569.30
2019-04-28T12:26:29.083Z,100566.55
2019-04-28T12:28:04.591Z,100567.64
2019-04-28T12:29:40.775Z,100569.25
2019-04-28T12:31:16.047Z,100567.70
2019-04-28T12:32:50.864Z,100571.64
2019-04-28T12:34:26.378Z,100567.27
2019-04-28T12:36:01.155Z,100564.60
2019-04-28T12:37:36.251Z,100562.29
2019-04-28T12:39:11.198Z,100564.55
2019-04-28T12:40:46.227Z,100566.67
2019-04-28T12:42:21.305Z,100562.73
2019-04-28T12:43:56.104Z,100562.16
2019-04-28T12:45:35.331Z,100565.12
2019-04-28T12:47:07.566Z,100566.52
2019-04-28T12:48:42.411Z,100561.31
2019-04-28T12:50:28.253Z,100563.42
2019-04-28T12:52:03.398Z,100564.12
2019-04-28T12:53:37.943Z,100562.95
2019-04-28T12:55:12.712Z,100561.64
2019-04-28T12:57:03.417Z,100558.38
2019-04-28T12:58:37.802Z,100562.47
2019-04-28T13:00:31.677Z,100560.61
2019-04-28T13:02:12.354Z,100560.09
2019-04-28T13:04:01.501Z,100564.77
2019-04-28T13:05:37.093Z,100561.77
2019-04-28T13:07:11.523Z,100560.56
2019-04-28T13:08:47.112Z,100558.34
2019-04-28T13:10:21.618Z,100562.37
2019-04-28T13:11:56.305Z,100554.56
2019-04-28T13:13:31.106Z,100556.50
2019-04-28T13:15:05.893Z,100549.41
2019-04-28T13:16:40.272Z,100554.69
2019-04-28T13:18:14.641Z,100551.80
2019-04-28T13:19:49.002Z,100556.38
2019-04-28T13:21:23.394Z,100561.09
2019-04-28T13:22:57.754Z,100560.56
2019-04-28T13:24:32.394Z,100560.23
2019-04-28T13:26:06.820Z,100558.05
2019-04-28T13:27:41.455Z,100555.30
2019-04-28T13:29:15.815Z,100556.09
2019-04-28T13:30:50.502Z,100548.38
2019-04-28T13:32:24.902Z,100550.45
2019-04-28T13:34:01.349Z,100551.56
2019-04-28T13:35:35.701Z,100542.54
2019-04-28T13:37:10.610Z,100542.39
2019-04-28T13:38:45.059Z,100538.92
2019-04-28T13:40:25.183Z,100539.70
2019-04-28T13:41:59.996Z,100544.13
2019-04-28T13:43:34.778Z,100545.59
2019-04-28T13:45:16.489Z,100540.81
2019-04-28T13:46:50.915Z,100531.72
2019-04-28T13:48:25.264Z,100540.86
2019-04-28T13:50:09.891Z,100530.33
2019-04-28T13:51:44.402Z,100525.79
2019-04-28T13:53:18.789Z,100528.70
2019-04-28T13:54:56.484Z,100533.91
2019-04-28T13:56:32.548Z,100529.25
2019-04-28T13:58:07.627Z,100529.44
2019-04-28T13:59:49.987Z,100526.13
2019-04-28T14:01:41.878Z,100527.46
2019-04-28T14:03:28.176Z,100534.44
2019-04-28T14:05:24.736Z,100532.13
2019-04-28T14:07:01.442Z,100538.69
2019-04-28T14:08:36.030Z,100518.72
2019-04-28T14:10:10.462Z,100520.78
2019-04-28T14:11:45.066Z,100522.48
2019-04-28T14:13:19.570Z,100521.50
2019-04-28T14:14:54.021Z,100521.87
2019-04-28T14:16:28.686Z,100517.39
2019-04-28T14:18:03.772Z,100521.78
2019-04-28T14:19:41.707Z,100511.76
2019-04-28T14:21:16.823Z,100522.39
2019-04-28T14:22:51.614Z,100522.25
2019-04-28T14:24:29.448Z,100525.84
2019-04-28T14:26:03.880Z,100531.42
2019-04-28T14:27:38.326Z,100532.73
2019-04-28T14:29:12.778Z,100531.01
2019-04-28T14:30:47.173Z,100531.05
2019-04-28T14:32:21.758Z,100528.73
2019-04-28T14:33:56.417Z,100523.02
2019-04-28T14:35:31.129Z,100526.33
2019-04-28T14:37:05.597Z,100523.15
2019-04-28T14:38:43.008Z,100529.44
2019-04-28T14:40:16.546Z,100526.38
2019-04-28T14:41:51.176Z,100523.11
2019-04-28T14:43:26.308Z,100521.23
2019-04-28T14:45:00.962Z,100520.13
2019-04-28T14:46:35.306Z,100526.41
2019-04-28T14:48:09.918Z,100536.63
2019-04-28T14:49:44.673Z,100530.95
2019-04-28T14:51:19.048Z,100530.84
2019-04-28T14:52:53.727Z,100528.70
2019-04-28T14:54:28.165Z,100536.35
2019-04-28T14:56:02.791Z,100529.73
2019-04-28T14:57:37.486Z,100531.03
2019-04-28T14:59:11.858Z,100532.83
2019-04-28T15:00:50.809Z,100531.45
2019-04-28T15:02:39.938Z,100530.34
2019-04-28T15:04:21.752Z,100535.52
2019-04-28T15:06:08.353Z,100535.56
2019-04-28T15:08:10.053Z,100536.73
2019-04-28T15:10:10.026Z,100535.89
2019-04-28T15:11:48.107Z,100533.70
2019-04-28T15:13:23.591Z,100535.45
2019-04-28T15:14:57.970Z,100531.67
2019-04-28T15:16:32.470Z,100539.73
2019-04-28T15:18:06.877Z,100534.80
2019-04-28T15:19:41.316Z,100530.12
2019-04-28T15:21:15.722Z,100530.58
2019-04-28T15:22:50.168Z,100528.60
2019-04-28T15:24:24.565Z,100534.80
2019-04-28T15:25:59.026Z,100528.33
2019-04-28T15:27:33.517Z,100526.18
2019-04-28T15:29:08.018Z,100524.06
2019-04-28T15:30:42.736Z,100523.34
2019-04-28T15:32:17.364Z,100530.63
2019-04-28T15:33:51.758Z,100521.58
2019-04-28T15:35:26.173Z,100523.84
2019-04-28T15:37:09.518Z,100523.38
2019-04-28T15:38:36.882Z,100538.31
2019-04-28T15:40:11.405Z,100536.55
2019-04-28T15:41:45.780Z,100535.50
2019-04-28T15:43:20.143Z,100536.38
2019-04-28T15:44:54.584Z,100527.52
2019-04-28T15:46:28.993Z,100533.56
2019-04-28T15:48:03.444Z,100526.97
2019-04-28T15:49:37.840Z,100535.37
2019-04-28T15:51:12.366Z,100534.41
2019-04-28T15:52:47.218Z,100533.60
2019-04-28T15:54:21.745Z,100534.69
2019-04-28T15:56:14.000Z,100531.56
2019-04-28T15:57:48.726Z,100537.29
2019-04-28T15:59:25.081Z,100527.91
2019-04-28T16:01:00.019Z,100529.41
2019-04-28T16:02:34.498Z,100526.61
2019-04-28T16:04:08.924Z,100524.92
2019-04-28T16:05:43.655Z,100522.81
2019-04-28T16:07:24.764Z,100528.91
2019-04-28T16:08:54.156Z,100522.30
2019-04-28T16:10:28.608Z,100523.08
2019-04-28T16:12:03.078Z,100525.86
2019-04-28T16:13:37.454Z,100525.06
2019-04-28T16:15:12.050Z,100523.12
2019-04-28T16:16:46.535Z,100527.70
2019-04-28T16:18:20.906Z,100518.37
2019-04-28T16:19:55.553Z,100517.09
2019-04-28T16:21:29.919Z,100527.56
2019-04-28T16:23:04.772Z,100524.96
2019-04-28T16:24:39.414Z,100523.72
2019-04-28T16:26:13.801Z,100526.15
2019-04-28T16:27:48.244Z,100523.13
2019-04-28T16:29:22.609Z,100519.66
2019-04-28T16:30:57.101Z,100525.37
2019-04-28T16:32:31.703Z,100525.20
2019-04-28T16:34:06.479Z,100526.11
2019-04-28T16:35:40.936Z,100524.35
2019-04-28T16:37:15.629Z,100525.35
2019-04-28T16:38:50.030Z,100524.42
2019-04-28T16:40:34.649Z,100526.58
2019-04-28T16:42:09.009Z,100524.67
2019-04-28T16:43:44.317Z,100522.14
2019-04-28T16:45:22.130Z,100522.75
2019-04-28T16:46:56.773Z,100522.13
2019-04-28T16:48:31.207Z,100522.97
2019-04-28T16:50:06.104Z,100527.02
2019-04-28T16:51:40.754Z,100525.08
2019-04-28T16:53:15.371Z,100523.31
2019-04-28T16:55:08.837Z,100527.33
2019-04-28T16:56:53.121Z,100529.36
2019-04-28T16:58:43.585Z,100533.14
2019-04-28T17:04:54.126Z,100540.66
2019-04-28T17:06:29.991Z,100540.61
2019-04-28T17:08:04.896Z,100551.28
2019-04-28T17:09:39.757Z,100550.20
2019-04-28T17:11:14.650Z,100551.59
2019-04-28T17:12:50.482Z,100546.94
2019-04-28T17:14:26.321Z,100551.00
2019-04-28T17:16:00.718Z,100551.70
2019-04-28T17:17:35.176Z,100546.23
2019-04-28T17:19:09.713Z,100550.07
2019-04-28T17:20:44.238Z,100549.41
2019-04-28T17:22:18.704Z,100558.30
2019-04-28T17:23:53.137Z,100551.78
2019-04-28T17:25:27.637Z,100553.31
2019-04-28T17:27:02.477Z,100547.69
2019-04-28T17:28:37.393Z,100553.36
2019-04-28T17:30:13.082Z,100558.70
2019-04-28T17:31:47.589Z,100560.17
2019-04-28T17:33:22.031Z,100558.22
2019-04-28T17:34:56.394Z,100565.80
2019-04-28T17:36:31.002Z,100561.30
2019-04-28T17:38:07.147Z,100562.98
2019-04-28T17:39:42.678Z,100567.47
2019-04-28T17:41:17.563Z,100570.53
2019-04-28T17:42:51.960Z,100578.09
2019-04-28T17:44:26.611Z,100582.47
2019-04-28T17:46:06.794Z,100581.84
2019-04-28T17:47:41.351Z,100580.06
2019-04-28T17:49:15.771Z,100584.62
2019-04-28T17:50:50.548Z,100587.96
2019-04-28T17:52:25.670Z,100585.97
2019-04-28T17:54:00.111Z,100588.20
2019-04-28T17:55:34.716Z,100585.13
2019-04-28T17:57:09.232Z,100583.93
2019-04-28T17:58:43.625Z,100595.27
2019-04-28T18:00:31.242Z,100592.33
2019-04-28T18:02:23.483Z,100596.77
2019-04-28T18:04:16.369Z,100599.25
2019-04-28T18:05:57.364Z,100602.95
2019-04-28T18:07:34.228Z,100600.42
2019-04-28T18:09:09.865Z,100600.03
2019-04-28T18:10:44.373Z,100607.36
2019-04-28T18:12:18.875Z,100610.75
2019-04-28T18:13:53.342Z,100607.28
2019-04-28T18:16:02.223Z,100603.41
2019-04-28T18:17:59.069Z,100615.41
2019-04-28T18:19:34.159Z,100616.17
2019-04-28T18:21:09.027Z,100612.08
2019-04-28T18:22:43.422Z,100619.48
2019-04-28T18:24:18.200Z,100617.64
2019-04-28T18:25:52.985Z,100621.73
2019-04-28T18:27:27.464Z,100631.66
2019-04-28T18:29:01.829Z,100634.27
2019-04-28T18:30:40.318Z,100635.76